createdAt,value
2024-02-22T00:05:16.893Z,24.73
2024-02-22T00:15:24.051Z,26.57
2024-02-22T00:25:29.339Z,19.97
2024-02-22T00:35:34.981Z,24.03
2024-02-22T00:45:37.702Z,16.80
2024-02-22T00:55:40.870Z,18.47
2024-02-22T01:05:46.760Z,18.70
2024-02-22T01:15:49.181Z,18.13
2024-02-22T01:25:55.155Z,19.93
2024-02-22T01:36:03.558Z,18.50
2024-02-22T01:46:09.577Z,18.47
2024-02-22T01:56:15.172Z,19.83
2024-02-22T02:06:21.187Z,22.43
2024-02-22T02:16:26.026Z,20.17
2024-02-22T02:26:29.576Z,19.50
2024-02-22T02:36:37.038Z,19.43
2024-02-22T02:46:41.711Z,22.67
2024-02-22T02:56:48.138Z,22.37
2024-02-22T03:06:52.756Z,19.10
2024-02-22T03:16:54.971Z,19.63
2024-02-22T03:26:59.585Z,18.47
2024-02-22T03:37:02.276Z,17.67
2024-02-22T03:47:07.179Z,21.73
2024-02-22T03:57:09.801Z,20.33
2024-02-22T04:07:16.098Z,19.17
2024-02-22T04:17:20.859Z,17.13
2024-02-22T04:27:28.106Z,9.77
2024-02-22T04:37:32.881Z,17.23
2024-02-22T04:47:40.337Z,22.27
2024-02-22T04:57:42.760Z,23.17
2024-02-22T05:07:46.746Z,19.80
2024-02-22T05:17:51.838Z,20.70
2024-02-22T05:27:57.196Z,19.83
2024-02-22T05:38:01.975Z,13.13
2024-02-22T05:48:07.711Z,17.43
2024-02-22T05:58:11.132Z,20.10
2024-02-22T06:08:13.855Z,22.33
2024-02-22T06:18:18.568Z,20.83
2024-02-22T06:28:20.896Z,18.27
2024-02-22T06:38:25.404Z,20.00
2024-02-22T06:48:30.121Z,18.97
2024-02-22T06:58:33.001Z,14.10
2024-02-22T07:08:40.409Z,15.50
2024-02-22T07:18:42.969Z,12.60
2024-02-22T07:28:47.758Z,13.73
2024-02-22T07:38:52.735Z,13.07
2024-02-22T07:48:55.435Z,13.83
2024-02-22T07:58:59.567Z,16.60
2024-02-22T08:09:08.282Z,11.13
2024-02-22T08:19:12.770Z,7.97
2024-02-22T08:29:15.408Z,12.97
2024-02-22T08:39:19.664Z,9.97
2024-02-22T08:49:23.823Z,12.15
2024-02-22T08:59:32.983Z,12.75
2024-02-22T09:09:38.631Z,9.55
2024-02-22T09:19:52.972Z,8.77
2024-02-22T09:30:06.962Z,10.30
2024-02-22T09:40:16.713Z,11.75
2024-02-22T09:50:26.205Z,10.38
2024-02-22T10:00:28.675Z,8.05
2024-02-22T10:10:34.023Z,10.57
2024-02-22T10:20:41.150Z,7.18
2024-02-22T10:30:47.220Z,8.65
2024-02-22T10:40:51.967Z,8.88
2024-02-22T10:50:58.338Z,7.93
2024-02-22T11:01:08.784Z,12.23
2024-02-22T11:11:16.742Z,6.55
2024-02-22T11:21:22.430Z,7.47
2024-02-22T11:31:29.613Z,6.10
2024-02-22T11:41:35.490Z,11.57
2024-02-22T11:51:41.568Z,6.00
2024-02-22T12:01:44.129Z,9.52
2024-02-22T12:11:48.307Z,6.68
2024-02-22T12:21:53.028Z,7.05
2024-02-22T12:32:06.813Z,6.13
2024-02-22T12:42:12.370Z,8.57
2024-02-22T12:52:15.019Z,7.45
2024-02-22T13:02:26.503Z,9.77
2024-02-22T13:12:39.121Z,7.78
2024-02-22T13:22:42.003Z,6.35
2024-02-22T13:32:45.781Z,8.10
2024-02-22T13:42:52.904Z,8.77
2024-02-22T13:52:58.385Z,7.88
2024-02-22T14:03:03.373Z,8.63
2024-02-22T14:13:06.754Z,7.27
2024-02-22T14:23:15.274Z,7.83
2024-02-22T14:33:21.862Z,9.65
2024-02-22T14:43:26.650Z,11.95
2024-02-22T14:53:28.976Z,10.02
2024-02-22T15:03:40.572Z,9.70
2024-02-22T15:13:50.730Z,9.45
2024-02-22T15:23:55.990Z,11.63
2024-02-22T15:34:05.276Z,10.85
2024-02-22T15:44:11.230Z,9.77
2024-02-22T15:54:16.448Z,9.80
2024-02-22T16:04:26.792Z,12.97
2024-02-22T16:14:36.066Z,10.32
2024-02-22T16:24:50.351Z,9.10
2024-02-22T16:34:55.181Z,7.05
2024-02-22T16:45:05.138Z,11.27
2024-02-22T16:55:09.856Z,10.17
2024-02-22T17:05:12.634Z,11.63
2024-02-22T17:15:15.742Z,11.37
2024-02-22T17:25:18.808Z,10.57
2024-02-22T17:35:30.584Z,10.93
2024-02-22T17:45:38.351Z,12.30
2024-02-22T17:55:40.591Z,12.32
2024-02-22T18:05:43.086Z,11.70
2024-02-22T18:15:52.595Z,10.63
2024-02-22T18:25:57.492Z,9.27
2024-02-22T18:36:00.504Z,12.90
2024-02-22T18:46:05.227Z,16.33
2024-02-22T18:56:09.968Z,11.23
2024-02-22T19:06:14.712Z,10.65
2024-02-22T19:16:20.295Z,15.38
2024-02-22T19:26:25.267Z,11.85
2024-02-22T19:36:38.180Z,13.82
2024-02-22T19:46:50.458Z,11.50
2024-02-22T19:56:57.842Z,10.50
2024-02-22T20:07:02.429Z,11.30
2024-02-22T20:17:05.138Z,11.60
2024-02-22T20:27:10.534Z,12.38
2024-02-22T20:37:12.943Z,13.07
2024-02-22T20:47:19.098Z,10.30
2024-02-22T20:57:24.449Z,12.38
2024-02-22T21:07:28.184Z,11.23
2024-02-22T21:17:37.142Z,12.13
2024-02-22T21:27:43.286Z,9.10
2024-02-22T21:37:50.433Z,9.77
2024-02-22T21:48:02.587Z,9.38
2024-02-22T21:58:07.653Z,11.50
2024-02-22T22:08:10.384Z,10.03
2024-02-22T22:18:15.536Z,9.65
2024-02-22T22:28:20.681Z,10.95
2024-02-22T22:38:28.805Z,10.77
2024-02-22T22:48:36.140Z,11.60
2024-02-22T22:58:38.648Z,12.27
2024-02-22T23:08:46.099Z,10.37
2024-02-22T23:18:50.102Z,10.88
2024-02-22T23:28:54.751Z,9.50
2024-02-22T23:38:59.265Z,10.27
2024-02-22T23:49:05.159Z,7.90
2024-02-22T23:59:08.118Z,9.33
